Time;durP1;ratioP1;P1;durP2;ratioP2;P2;SDS_P1;SDS_P2;PMS_P1;PMS_P2;Temp;Humidity;BMP_temperature;BMP_pressure;BME280_temperature;BME280_humidity;BME280_pressure;Samples;Min_cycle;Max_cycle;Signal;HPM_P1;HPM_P2
2022/08/07 03:00:49;;;;;;;0.70;0.60;;;18.40;55.90;;;;;;6144259;22;20379;31
2022/08/07 03:03:17;;;;;;;0.87;0.60;;;18.40;56.10;;;;;;4936732;29;20998;-74
2022/08/07 03:05:44;;;;;;;0.70;0.60;;;18.40;56.40;;;;;;4938016;29;20889;-74
2022/08/07 03:08:12;;;;;;;0.70;0.60;;;18.40;56.30;;;;;;4938276;29;20818;-75
2022/08/07 03:10:39;;;;;;;0.70;0.60;;;18.40;56.50;;;;;;4938152;29;20508;-75
2022/08/07 03:13:07;;;;;;;0.70;0.60;;;18.30;56.60;;;;;;4937878;29;20951;-75
2022/08/07 03:15:34;;;;;;;0.70;0.50;;;18.30;56.80;;;;;;5010982;23;20586;-74
2022/08/07 03:18:02;;;;;;;0.70;0.70;;;18.30;56.60;;;;;;5034433;28;20455;-74
2022/08/07 03:20:29;;;;;;;0.70;0.50;;;18.30;57.00;;;;;;5034888;28;20447;-73
2022/08/07 03:22:58;;;;;;;0.87;0.60;;;18.30;56.90;;;;;;5034911;28;20490;-73
2022/08/07 03:25:25;;;;;;;0.70;0.60;;;18.30;56.80;;;;;;5034841;28;20480;-74
2022/08/07 03:27:54;;;;;;;0.70;0.57;;;18.30;57.00;;;;;;5034968;28;20795;-73
2022/08/07 03:30:22;;;;;;;0.70;0.50;;;18.30;57.00;;;;;;5034578;28;20448;-74
2022/08/07 03:32:52;;;;;;;0.70;0.60;;;18.30;57.10;;;;;;5034786;28;20447;-74
2022/08/07 03:35:24;;;;;;;0.70;0.53;;;18.30;57.30;;;;;;5034650;28;21032;-74
2022/08/07 03:37:54;;;;;;;0.70;0.60;;;18.30;57.20;;;;;;5034736;28;20432;-74
2022/08/07 03:40:21;;;;;;;0.70;0.60;;;18.30;57.50;;;;;;5034619;28;20452;-74
2022/08/07 03:42:48;;;;;;;0.70;0.60;;;18.30;57.30;;;;;;5034181;28;20882;-73
2022/08/07 03:45:16;;;;;;;0.90;0.70;;;18.20;57.90;;;;;;5034532;28;20834;-74
2022/08/07 03:47:43;;;;;;;0.80;0.60;;;18.20;57.80;;;;;;5034541;28;20505;-73
2022/08/07 03:50:10;;;;;;;0.80;0.60;;;18.10;57.70;;;;;;5034217;28;20482;-74
2022/08/07 03:52:38;;;;;;;0.70;0.60;;;18.10;58.50;;;;;;5034456;28;20810;-73
2022/08/07 03:55:06;;;;;;;0.70;0.50;;;18.10;58.40;;;;;;5034236;28;20467;-75
2022/08/07 03:57:35;;;;;;;0.70;0.60;;;18.10;58.50;;;;;;5034442;28;20463;-74
2022/08/07 04:00:02;;;;;;;0.70;0.50;;;18.10;58.60;;;;;;5034349;28;20455;-74
2022/08/07 04:02:29;;;;;;;0.70;0.67;;;18.20;58.50;;;;;;5034229;28;20475;-74
2022/08/07 04:04:56;;;;;;;0.80;0.63;;;18.20;58.40;;;;;;5034118;28;20468;-74
2022/08/07 04:07:23;;;;;;;0.70;0.50;;;18.20;58.50;;;;;;5034187;28;20498;-74
2022/08/07 04:09:52;;;;;;;0.70;0.60;;;18.10;59.10;;;;;;5034127;28;20443;-74
2022/08/07 04:12:19;;;;;;;0.70;0.50;;;18.10;59.40;;;;;;5033808;28;20931;-74
2022/08/07 04:14:46;;;;;;;0.70;0.60;;;18.10;59.50;;;;;;5033880;28;20511;-74
2022/08/07 04:17:14;;;;;;;0.80;0.70;;;18.10;59.30;;;;;;5033997;28;20506;-74
2022/08/07 04:19:41;;;;;;;0.70;0.60;;;18.10;59.30;;;;;;5033952;28;20460;-74
2022/08/07 04:22:08;;;;;;;0.70;0.60;;;18.10;59.30;;;;;;5033816;28;20505;-73
2022/08/07 04:24:35;;;;;;;0.70;0.60;;;18.10;59.20;;;;;;5033761;28;20443;-74
2022/08/07 04:27:04;;;;;;;0.83;0.70;;;18.10;59.50;;;;;;5033805;28;20471;-73
2022/08/07 04:29:31;;;;;;;0.70;0.50;;;18.20;59.90;;;;;;5032657;28;20961;-73
2022/08/07 04:31:58;;;;;;;0.97;0.60;;;18.20;59.70;;;;;;5033865;28;20481;-73
2022/08/07 04:34:25;;;;;;;0.80;0.60;;;18.30;59.50;;;;;;5033455;28;20846;-74
2022/08/07 04:36:52;;;;;;;0.70;0.50;;;18.30;59.70;;;;;;5033889;28;20810;-74
2022/08/07 04:39:18;;;;;;;0.80;0.60;;;18.40;59.20;;;;;;5033930;28;20443;-74
2022/08/07 04:41:45;;;;;;;0.70;0.50;;;18.40;59.40;;;;;;5033591;28;20505;-74
2022/08/07 04:44:15;;;;;;;0.70;0.50;;;18.50;59.10;;;;;;5033542;28;20491;-73
2022/08/07 04:46:46;;;;;;;0.70;0.50;;;18.60;58.90;;;;;;5033529;28;20471;-74
2022/08/07 04:49:19;;;;;;;0.70;0.60;;;18.70;58.80;;;;;;5033535;28;20432;-73
2022/08/07 04:51:55;;;;;;;0.70;0.60;;;18.80;59.10;;;;;;5033536;28;20432;-73
2022/08/07 04:54:32;;;;;;;0.70;0.60;;;18.70;58.60;;;;;;5033370;28;20457;-74
2022/08/07 04:57:06;;;;;;;0.90;0.60;;;18.80;58.50;;;;;;5033540;28;20431;-74
2022/08/07 04:59:39;;;;;;;1.10;0.67;;;18.90;58.80;;;;;;5033563;28;20476;-73
2022/08/07 05:02:13;;;;;;;0.70;0.60;;;19.10;58.40;;;;;;5033472;28;20440;-73
2022/08/07 05:04:46;;;;;;;0.70;0.60;;;19.20;58.20;;;;;;5033383;28;20474;-74
2022/08/07 05:07:17;;;;;;;0.70;0.50;;;19.30;58.70;;;;;;5033403;28;20436;-74
2022/08/07 05:09:50;;;;;;;0.90;0.60;;;19.40;57.70;;;;;;5033365;28;20432;-73
2022/08/07 05:12:26;;;;;;;0.70;0.70;;;19.50;58.10;;;;;;5033302;28;20420;-73
2022/08/07 05:15:00;;;;;;;0.70;0.60;;;19.70;57.40;;;;;;5033172;28;20478;-74
2022/08/07 05:17:28;;;;;;;0.70;0.60;;;19.70;57.50;;;;;;5032971;28;20952;-73
2022/08/07 05:19:57;;;;;;;0.70;0.60;;;19.80;56.60;;;;;;5033961;28;20497;-74
2022/08/07 05:22:25;;;;;;;1.00;0.60;;;19.90;57.20;;;;;;5033102;28;20448;-74
2022/08/07 05:24:54;;;;;;;0.73;0.63;;;19.90;56.70;;;;;;5032689;28;20970;-73
2022/08/07 05:27:22;;;;;;;0.70;0.60;;;20.00;56.70;;;;;;5033106;28;20455;-74
2022/08/07 05:29:50;;;;;;;0.70;0.63;;;20.10;57.10;;;;;;5032987;28;20447;-73
2022/08/07 05:32:20;;;;;;;0.70;0.60;;;20.20;57.30;;;;;;5032898;28;20497;-74
2022/08/07 05:34:48;;;;;;;0.70;0.50;;;20.30;57.20;;;;;;5032815;28;20460;-74
2022/08/07 05:37:16;;;;;;;0.70;0.60;;;20.40;57.50;;;;;;5032788;28;20534;-74
2022/08/07 05:39:43;;;;;;;0.70;0.60;;;20.60;57.50;;;;;;5033333;28;20939;-74
2022/08/07 05:42:12;;;;;;;0.87;0.60;;;20.60;57.40;;;;;;5036628;28;20454;-73
2022/08/07 05:44:40;;;;;;;0.70;0.63;;;20.70;57.80;;;;;;5036285;28;20483;-75
2022/08/07 05:47:07;;;;;;;0.70;0.60;;;20.80;57.80;;;;;;5036819;28;20494;-73
2022/08/07 05:49:37;;;;;;;1.00;0.70;;;20.90;58.50;;;;;;5036802;28;20450;-73
2022/08/07 05:52:05;;;;;;;0.70;0.60;;;21.10;58.40;;;;;;5036433;28;20826;-73
2022/08/07 05:54:31;;;;;;;0.90;0.67;;;21.20;58.30;;;;;;5036484;28;20530;-75
2022/08/07 05:56:58;;;;;;;0.70;0.70;;;21.40;58.00;;;;;;5036180;28;20448;-74
2022/08/07 05:59:26;;;;;;;0.70;0.67;;;21.50;59.10;;;;;;5036291;28;20443;-73
2022/08/07 06:01:54;;;;;;;0.70;0.60;;;21.80;58.60;;;;;;5036373;28;20502;-74
2022/08/07 06:04:21;;;;;;;0.90;0.80;;;21.80;59.40;;;;;;5035785;28;20886;-75
2022/08/07 06:06:50;;;;;;;0.80;0.60;;;21.90;58.90;;;;;;5036071;28;20938;-73
2022/08/07 06:09:17;;;;;;;0.70;0.70;;;22.10;59.10;;;;;;5036060;28;20866;-75
2022/08/07 06:11:44;;;;;;;0.70;0.60;;;22.20;59.40;;;;;;5036228;28;20478;-73
2022/08/07 06:14:12;;;;;;;0.70;0.70;;;22.40;59.90;;;;;;5036136;28;20849;-75
2022/08/07 06:16:39;;;;;;;0.70;0.60;;;22.60;59.70;;;;;;5036647;28;20974;-74
2022/08/07 06:19:07;;;;;;;0.70;0.70;;;22.70;60.70;;;;;;5036124;28;20501;-73
2022/08/07 06:21:35;;;;;;;0.70;0.70;;;22.50;61.00;;;;;;5036312;28;20451;-75
2022/08/07 06:24:04;;;;;;;0.70;0.70;;;22.40;62.30;;;;;;5036114;28;20529;-74
2022/08/07 06:26:31;;;;;;;0.80;0.70;;;22.40;62.70;;;;;;5035803;28;20902;-75
2022/08/07 06:28:59;;;;;;;0.70;0.70;;;22.50;62.80;;;;;;5036131;28;20444;-74
2022/08/07 06:31:25;;;;;;;0.80;0.77;;;22.60;62.90;;;;;;5036109;28;20971;-74
2022/08/07 06:33:53;;;;;;;0.77;0.60;;;22.50;63.10;;;;;;5035783;28;20939;-74
2022/08/07 06:36:20;;;;;;;0.70;0.60;;;22.60;63.30;;;;;;5036341;28;20471;-74
2022/08/07 06:38:46;;;;;;;0.70;0.67;;;22.70;63.20;;;;;;5035652;28;20542;-73
2022/08/07 06:41:19;;;;;;;0.70;0.50;;;22.80;62.80;;;;;;5035757;28;20444;-74
2022/08/07 06:43:48;;;;;;;0.80;0.70;;;22.90;63.20;;;;;;5035553;28;20475;-73
2022/08/07 06:46:15;;;;;;;0.73;0.73;;;22.80;63.00;;;;;;5035474;28;20476;-74
2022/08/07 06:48:42;;;;;;;0.70;0.60;;;22.90;62.80;;;;;;5035533;28;20788;-75
2022/08/07 06:51:14;;;;;;;0.70;0.70;;;22.80;63.40;;;;;;5035040;28;20451;-74
2022/08/07 06:53:41;;;;;;;0.70;0.60;;;22.80;63.20;;;;;;5035666;28;20420;-74
2022/08/07 06:56:10;;;;;;;0.70;0.70;;;22.00;65.10;;;;;;5035333;28;20474;-74
2022/08/07 06:58:40;;;;;;;0.70;0.70;;;22.10;64.60;;;;;;5035319;28;20447;-74
2022/08/07 07:01:09;;;;;;;0.70;0.70;;;22.30;64.20;;;;;;5035208;28;20427;-74
2022/08/07 07:03:39;;;;;;;0.80;0.70;;;22.40;63.80;;;;;;5035046;28;20493;-73
2022/08/07 07:06:07;;;;;;;0.70;0.70;;;22.30;63.60;;;;;;5035346;28;20558;-74
2022/08/07 07:08:34;;;;;;;0.70;0.60;;;22.30;63.70;;;;;;5035381;28;20444;-74
2022/08/07 07:11:01;;;;;;;0.70;0.60;;;22.30;62.40;;;;;;5034914;28;20455;-73
2022/08/07 07:13:34;;;;;;;0.70;0.60;;;22.10;62.90;;;;;;5035225;28;20855;-73
2022/08/07 07:16:07;;;;;;;1.00;0.70;;;22.00;62.10;;;;;;5035243;28;20479;-73
2022/08/07 07:18:39;;;;;;;0.70;0.60;;;21.90;61.50;;;;;;5035240;28;20443;-73
2022/08/07 07:21:10;;;;;;;0.70;0.70;;;22.00;61.20;;;;;;5035030;28;20977;-73
2022/08/07 07:23:37;;;;;;;0.70;0.60;;;22.00;61.80;;;;;;5034894;28;20521;-73
2022/08/07 07:26:09;;;;;;;0.70;0.50;;;22.00;60.90;;;;;;5035296;28;20471;-74
2022/08/07 07:28:40;;;;;;;0.70;0.60;;;22.30;60.40;;;;;;5034861;28;20519;-73
2022/08/07 07:31:15;;;;;;;0.70;0.57;;;22.40;60.30;;;;;;5035221;28;20489;-73
2022/08/07 07:33:44;;;;;;;0.70;0.60;;;22.30;59.80;;;;;;5034802;28;20432;-73
2022/08/07 07:36:11;;;;;;;0.70;0.60;;;22.40;59.20;;;;;;5034533;28;20467;-73
2022/08/07 07:38:40;;;;;;;1.20;0.63;;;22.00;59.60;;;;;;5034552;28;20447;-73
2022/08/07 07:41:10;;;;;;;0.70;0.70;;;22.20;58.80;;;;;;5034482;28;20502;-73
2022/08/07 07:43:40;;;;;;;0.70;0.50;;;22.20;58.40;;;;;;5034262;28;20840;-73
2022/08/07 07:46:09;;;;;;;0.70;0.60;;;22.50;57.40;;;;;;5034509;28;20856;-73
2022/08/07 07:48:37;;;;;;;0.70;0.50;;;22.60;57.90;;;;;;5034720;28;20451;-74
2022/08/07 07:51:04;;;;;;;0.70;0.50;;;22.40;57.30;;;;;;5033965;28;20955;-74
2022/08/07 07:53:32;;;;;;;0.70;0.60;;;22.10;57.60;;;;;;5033977;28;20951;-74
2022/08/07 07:56:00;;;;;;;0.70;0.60;;;22.60;57.30;;;;;;5034126;28;20468;-73
2022/08/07 07:58:30;;;;;;;0.70;0.60;;;22.60;56.70;;;;;;5034118;28;20451;-72
2022/08/07 08:00:58;;;;;;;0.70;0.50;;;22.50;55.40;;;;;;5034119;28;20432;-73
2022/08/07 08:03:28;;;;;;;0.70;0.50;;;22.60;54.80;;;;;;5033717;28;20455;-73
2022/08/07 08:05:55;;;;;;;0.70;0.50;;;22.70;54.80;;;;;;5033913;28;20471;-70
2022/08/07 08:08:24;;;;;;;0.70;0.60;;;22.90;54.30;;;;;;5034171;28;20447;-72
2022/08/07 08:10:51;;;;;;;0.70;0.60;;;22.90;55.10;;;;;;5033719;28;20534;-73
2022/08/07 08:13:22;;;;;;;0.90;0.50;;;23.40;53.40;;;;;;5033938;28;20451;-71
2022/08/07 08:15:50;;;;;;;0.70;0.60;;;23.70;53.40;;;;;;5033669;28;20529;-71
2022/08/07 08:18:17;;;;;;;0.70;0.50;;;23.90;52.50;;;;;;5033844;28;20451;-72
2022/08/07 08:20:47;;;;;;;0.70;0.50;;;23.90;50.90;;;;;;5034452;28;20793;-71
2022/08/07 08:28:50;;;;;;;0.70;0.67;;;23.50;52.00;;;;;;5032883;28;20459;-70
2022/08/07 08:31:21;;;;;;;0.70;0.60;;;23.30;53.30;;;;;;5033300;28;20485;-71
2022/08/07 08:33:51;;;;;;;0.70;0.50;;;23.40;53.60;;;;;;5033375;28;20424;-70
2022/08/07 08:36:21;;;;;;;0.70;0.50;;;23.40;52.60;;;;;;5033166;28;20525;-70
2022/08/07 08:38:48;;;;;;;0.70;0.50;;;23.50;52.90;;;;;;5033360;28;20447;-71
2022/08/07 08:41:22;;;;;;;0.70;0.60;;;23.60;53.50;;;;;;5033264;28;20448;-71
2022/08/07 08:43:59;;;;;;;0.70;0.50;;;23.40;53.30;;;;;;5033175;28;20521;-70
2022/08/07 08:46:33;;;;;;;0.70;0.60;;;23.50;53.80;;;;;;5033196;28;20546;-71
2022/08/07 08:49:10;;;;;;;0.70;0.50;;;23.70;53.00;;;;;;5033252;28;20470;-71
2022/08/07 08:51:42;;;;;;;0.80;0.60;;;24.00;53.00;;;;;;5033252;28;20504;-71
2022/08/07 08:54:16;;;;;;;0.70;0.50;;;24.40;51.90;;;;;;5032789;28;20428;-71
2022/08/07 08:56:46;;;;;;;0.60;0.50;;;24.60;50.90;;;;;;5032960;28;20468;-71
2022/08/07 08:59:25;;;;;;;0.70;0.50;;;24.20;51.30;;;;;;5033143;28;20432;-70
2022/08/07 09:02:00;;;;;;;0.70;0.60;;;24.10;52.00;;;;;;5033068;28;20432;-70
2022/08/07 09:04:35;;;;;;;0.70;0.50;;;24.30;52.20;;;;;;5032986;28;20944;-72
2022/08/07 09:07:10;;;;;;;0.70;0.50;;;24.50;52.20;;;;;;5032989;28;20501;-71
2022/08/07 09:09:47;;;;;;;0.70;0.50;;;24.80;51.30;;;;;;5032989;28;20440;-71
2022/08/07 09:12:27;;;;;;;0.70;0.50;;;25.10;51.30;;;;;;5033099;28;20458;-71
2022/08/07 09:15:04;;;;;;;0.70;0.50;;;25.20;50.60;;;;;;5033374;28;20514;-70
2022/08/07 09:17:41;;;;;;;0.70;0.50;;;25.10;50.20;;;;;;5032501;28;20798;-71
2022/08/07 09:20:22;;;;;;;0.70;0.60;;;25.30;50.60;;;;;;5032426;28;20968;-71
2022/08/07 09:23:01;;;;;;;0.70;0.60;;;25.60;50.30;;;;;;5033116;28;20482;-71
2022/08/07 09:25:37;;;;;;;0.70;0.57;;;25.70;49.00;;;;;;5032711;28;20494;-72
2022/08/07 09:28:06;;;;;;;0.70;0.50;;;25.30;49.30;;;;;;5032863;28;20428;-71
2022/08/07 09:30:51;;;;;;;0.70;0.60;;;25.50;50.00;;;;;;5032777;28;20452;-71
2022/08/07 09:33:35;;;;;;;0.70;0.57;;;25.70;45.80;;;;;;5033965;28;20432;-72
2022/08/07 09:36:09;;;;;;;0.70;0.50;;;25.40;46.70;;;;;;5032695;28;20468;-72
2022/08/07 09:38:45;;;;;;;0.63;0.50;;;25.30;48.10;;;;;;5032872;28;20506;-71
2022/08/07 09:41:22;;;;;;;0.70;0.50;;;25.50;45.80;;;;;;5032723;28;20432;-72
2022/08/07 09:43:57;;;;;;;0.70;0.60;;;25.60;45.80;;;;;;5032654;28;20431;-72
2022/08/07 09:46:35;;;;;;;0.70;0.50;;;25.70;45.60;;;;;;5032227;28;21035;-72
2022/08/07 09:49:21;;;;;;;0.70;0.50;;;25.60;44.90;;;;;;5032564;28;20427;-71
2022/08/07 09:52:01;;;;;;;0.70;0.50;;;25.30;45.10;;;;;;5032526;28;20446;-71
2022/08/07 09:54:38;;;;;;;0.70;0.50;;;25.50;45.00;;;;;;5032426;28;20428;-72
2022/08/07 09:57:17;;;;;;;0.70;0.60;;;25.90;44.50;;;;;;5032237;28;20920;-72
2022/08/07 10:00:03;;;;;;;0.70;0.50;;;26.20;45.50;;;;;;5032632;28;20837;-72
2022/08/07 10:02:54;;;;;;;0.70;0.50;;;26.30;44.10;;;;;;5032542;28;20526;-72
2022/08/07 10:05:32;;;;;;;0.70;0.60;;;26.50;44.30;;;;;;5032447;28;20534;-73
2022/08/07 10:08:10;;;;;;;0.70;0.50;;;26.20;44.70;;;;;;5032354;28;20435;-71
2022/08/07 10:10:47;;;;;;;0.70;0.50;;;26.30;44.50;;;;;;5033145;28;20435;-71
2022/08/07 10:13:38;;;;;;;0.70;0.60;;;26.40;44.20;;;;;;5032382;28;20438;-73
2022/08/07 10:16:20;;;;;;;0.70;0.50;;;26.40;43.30;;;;;;5032424;28;20986;-73
2022/08/07 10:19:08;;;;;;;0.70;0.60;;;26.60;44.40;;;;;;5032890;28;20459;-73
2022/08/07 10:21:47;;;;;;;0.70;0.50;;;26.90;42.70;;;;;;5032833;28;20771;-72
2022/08/07 10:24:35;;;;;;;0.70;0.50;;;26.90;41.30;;;;;;5032379;28;20962;-72
2022/08/07 10:27:16;;;;;;;0.70;0.60;;;26.70;41.20;;;;;;5034022;28;20432;-72
2022/08/07 10:30:06;;;;;;;0.70;0.50;;;26.80;41.80;;;;;;5036164;28;20468;-72
2022/08/07 10:33:08;;;;;;;0.70;0.50;;;26.80;40.50;;;;;;5036710;28;20470;-72
2022/08/07 10:35:53;;;;;;;0.70;0.50;;;26.80;40.80;;;;;;5035682;28;20463;-72
2022/08/07 10:38:35;;;;;;;0.80;0.60;;;26.50;40.80;;;;;;5035919;28;20428;-72
2022/08/07 10:41:09;;;;;;;0.70;0.50;;;26.30;41.80;;;;;;5035548;28;20436;-72
2022/08/07 10:43:48;;;;;;;0.80;0.50;;;26.40;41.70;;;;;;5035265;28;20466;-72
2022/08/07 10:46:19;;;;;;;0.70;0.50;;;26.50;40.50;;;;;;5035000;28;20545;-72
2022/08/07 10:48:57;;;;;;;0.70;0.50;;;26.20;41.90;;;;;;5035079;28;20464;-72
2022/08/07 10:51:32;;;;;;;0.70;0.50;;;26.20;41.20;;;;;;5035322;28;20432;-72
2022/08/07 10:54:10;;;;;;;1.10;0.60;;;26.00;40.80;;;;;;5035024;28;20443;-71
2022/08/07 10:56:49;;;;;;;0.70;0.50;;;26.30;40.50;;;;;;5034627;28;20471;-71
2022/08/07 10:59:26;;;;;;;0.80;0.50;;;26.50;40.60;;;;;;5034949;28;20435;-72
2022/08/07 11:01:59;;;;;;;0.80;0.60;;;26.70;40.50;;;;;;5034988;28;20446;-72
2022/08/07 11:04:40;;;;;;;0.70;0.50;;;26.50;40.70;;;;;;5034849;28;20471;-73
2022/08/07 11:07:17;;;;;;;0.70;0.50;;;26.40;41.20;;;;;;5034910;28;20459;-72
2022/08/07 11:09:49;;;;;;;0.70;0.50;;;26.50;41.10;;;;;;5034824;28;20435;-73
2022/08/07 11:12:18;;;;;;;0.90;0.50;;;26.60;40.30;;;;;;5034862;28;20585;-73
2022/08/07 11:14:53;;;;;;;0.70;0.50;;;26.60;40.40;;;;;;5034318;28;20459;-73
2022/08/07 11:17:27;;;;;;;0.60;0.50;;;26.20;40.50;;;;;;5034328;28;20902;-73
2022/08/07 11:20:01;;;;;;;0.67;0.50;;;26.30;41.60;;;;;;5034606;28;20432;-73
2022/08/07 11:22:34;;;;;;;0.70;0.50;;;26.50;41.60;;;;;;5034206;28;20911;-73
2022/08/07 11:25:10;;;;;;;0.70;0.50;;;26.60;40.70;;;;;;5034642;28;20483;-72
2022/08/07 11:27:48;;;;;;;0.70;0.50;;;26.50;40.80;;;;;;5034064;28;20431;-71
2022/08/07 11:30:19;;;;;;;0.70;0.50;;;26.20;40.90;;;;;;5033875;28;20436;-72
2022/08/07 11:32:51;;;;;;;0.70;0.50;;;26.10;41.80;;;;;;5034481;28;20436;-73
2022/08/07 11:35:21;;;;;;;0.70;0.50;;;26.60;41.70;;;;;;5033808;28;20467;-72
2022/08/07 11:38:01;;;;;;;1.10;0.50;;;26.60;40.40;;;;;;5033210;28;20451;-71
2022/08/07 11:40:35;;;;;;;0.70;0.50;;;26.30;40.50;;;;;;5033663;28;20900;-72
2022/08/07 11:43:11;;;;;;;0.93;0.60;;;25.90;41.60;;;;;;5034518;28;20444;-72
2022/08/07 11:45:52;;;;;;;0.63;0.50;;;26.20;41.20;;;;;;5033779;28;20490;-72
2022/08/07 11:48:34;;;;;;;0.70;0.50;;;26.10;41.00;;;;;;5033814;28;20443;-72
2022/08/07 11:51:14;;;;;;;0.70;0.50;;;25.90;41.20;;;;;;5033814;28;20499;-71
2022/08/07 11:53:50;;;;;;;0.63;0.50;;;25.80;41.60;;;;;;5033772;28;20482;-71
2022/08/07 11:56:31;;;;;;;0.70;0.50;;;26.10;41.50;;;;;;5033754;28;20498;-70
2022/08/07 11:59:12;;;;;;;0.70;0.53;;;26.40;40.40;;;;;;5033559;28;20837;-71
2022/08/07 12:01:50;;;;;;;0.70;0.50;;;26.40;40.50;;;;;;5033813;28;20493;-70
2022/08/07 12:04:45;;;;;;;0.70;0.50;;;26.70;39.60;;;;;;5033711;28;20535;-71
2022/08/07 12:07:18;;;;;;;0.70;0.60;;;26.80;39.70;;;;;;5031983;28;20456;-70
2022/08/07 12:09:49;;;;;;;0.70;0.57;;;27.20;41.30;;;;;;5033845;28;20428;-70
2022/08/07 12:12:22;;;;;;;0.70;0.50;;;27.50;40.80;;;;;;5033692;28;20424;-71
2022/08/07 12:14:54;;;;;;;0.70;0.50;;;27.70;39.70;;;;;;5033185;28;21010;-71
2022/08/07 12:17:28;;;;;;;0.70;0.50;;;27.50;39.30;;;;;;5033636;28;20428;-71
2022/08/07 12:20:00;;;;;;;0.70;0.60;;;27.50;39.70;;;;;;5033482;28;20467;-71
2022/08/07 12:22:38;;;;;;;0.70;0.50;;;27.70;38.90;;;;;;5033254;28;20795;-71
2022/08/07 12:28:00;;;;;;;0.70;0.50;;;28.10;38.90;;;;;;5033227;28;20410;-71
2022/08/07 12:30:34;;;;;;;0.70;0.53;;;27.90;38.40;;;;;;5033129;28;20844;-71
2022/08/07 12:33:07;;;;;;;0.80;0.60;;;27.50;39.80;;;;;;5032664;28;20803;-72
2022/08/07 12:35:35;;;;;;;0.70;0.60;;;27.10;39.60;;;;;;5033066;28;20495;-71
2022/08/07 12:38:02;;;;;;;0.70;0.50;;;27.20;41.00;;;;;;5032991;28;20491;-70
2022/08/07 12:40:33;;;;;;;0.70;0.50;;;27.00;39.40;;;;;;5033528;28;20460;-72
2022/08/07 12:43:04;;;;;;;0.70;0.50;;;27.10;40.70;;;;;;5033554;28;20463;-71
2022/08/07 12:45:36;;;;;;;0.70;0.50;;;27.40;40.10;;;;;;5033648;28;20491;-71
2022/08/07 12:48:12;;;;;;;0.70;0.50;;;27.80;39.40;;;;;;5033414;28;20428;-71
2022/08/07 12:50:48;;;;;;;0.70;0.50;;;28.10;39.60;;;;;;5032815;28;20489;-70
2022/08/07 12:53:21;;;;;;;0.80;0.60;;;28.20;39.00;;;;;;5033365;28;20432;-71
2022/08/07 12:55:58;;;;;;;0.73;0.50;;;28.30;40.10;;;;;;5033295;28;20463;-71
2022/08/07 12:58:27;;;;;;;0.70;0.60;;;28.50;38.70;;;;;;5033974;28;20431;-70
2022/08/07 13:01:06;;;;;;;0.70;0.60;;;28.40;39.00;;;;;;5033163;28;20448;-71
2022/08/07 13:04:09;;;;;;;0.70;0.60;;;28.20;38.20;;;;;;5033199;28;20514;-72
2022/08/07 13:06:52;;;;;;;0.70;0.60;;;28.40;38.80;;;;;;5033014;28;20582;-71
2022/08/07 13:09:26;;;;;;;0.70;0.50;;;28.70;38.80;;;;;;5033039;28;20597;-71
2022/08/07 13:12:00;;;;;;;0.70;0.50;;;28.50;38.40;;;;;;5032980;28;20439;-71
2022/08/07 13:14:35;;;;;;;0.70;0.50;;;28.20;38.70;;;;;;5032738;28;20428;-73
2022/08/07 13:17:10;;;;;;;0.70;0.60;;;28.20;38.80;;;;;;5032664;28;20439;-71
2022/08/07 13:19:49;;;;;;;0.70;0.50;;;28.50;39.10;;;;;;5032884;28;20431;-71
2022/08/07 13:22:29;;;;;;;0.70;0.60;;;28.60;38.90;;;;;;5033054;28;20493;-71
2022/08/07 13:25:01;;;;;;;0.70;0.60;;;28.60;38.60;;;;;;5033018;28;20482;-72
2022/08/07 13:27:33;;;;;;;0.70;0.50;;;28.90;38.50;;;;;;5032729;28;20783;-70
2022/08/07 13:30:04;;;;;;;0.70;0.50;;;28.90;38.50;;;;;;5032909;28;20435;-71
2022/08/07 13:32:37;;;;;;;0.70;0.60;;;29.00;38.30;;;;;;5032945;28;20435;-71
2022/08/07 13:35:09;;;;;;;0.70;0.50;;;29.10;37.80;;;;;;5032911;28;20470;-71
2022/08/07 13:37:42;;;;;;;0.70;0.50;;;29.20;38.50;;;;;;5033674;28;20494;-71
2022/08/07 13:40:17;;;;;;;0.70;0.60;;;29.30;38.50;;;;;;5032686;28;20900;-73
2022/08/07 13:42:45;;;;;;;0.70;0.50;;;29.60;38.00;;;;;;5032798;28;20485;-71
2022/08/07 13:45:14;;;;;;;0.70;0.50;;;29.60;38.30;;;;;;5032311;28;21048;-71
2022/08/07 13:47:41;;;;;;;0.70;0.60;;;29.60;38.00;;;;;;5033461;28;20444;-71
2022/08/07 13:50:12;;;;;;;0.70;0.60;;;29.70;38.70;;;;;;5032657;28;20448;-71
2022/08/07 13:52:43;;;;;;;0.70;0.50;;;29.60;38.00;;;;;;5032794;28;20424;-71
2022/08/07 13:55:13;;;;;;;0.70;0.50;;;29.70;38.40;;;;;;5032472;28;20834;-71
2022/08/07 13:57:43;;;;;;;0.70;0.57;;;29.80;37.90;;;;;;5032368;28;20927;-71
2022/08/07 14:00:10;;;;;;;0.80;0.60;;;29.90;38.00;;;;;;5032743;28;20439;-71
2022/08/07 14:02:40;;;;;;;0.70;0.50;;;30.00;37.90;;;;;;5036488;28;20521;-71
2022/08/07 14:05:12;;;;;;;0.70;0.50;;;30.20;37.90;;;;;;5036249;28;20464;-70
2022/08/07 14:07:41;;;;;;;0.70;0.50;;;30.20;37.10;;;;;;5036056;28;20977;-71
2022/08/07 14:10:09;;;;;;;0.70;0.60;;;30.00;38.00;;;;;;5036234;28;20454;-73
2022/08/07 14:12:44;;;;;;;0.70;0.60;;;30.00;37.50;;;;;;5036145;28;20854;-71
2022/08/07 14:15:19;;;;;;;0.70;0.60;;;29.80;38.20;;;;;;5036023;28;20478;-71
2022/08/07 14:17:47;;;;;;;0.70;0.50;;;30.00;37.90;;;;;;5035808;28;20481;-71
2022/08/07 14:20:19;;;;;;;0.70;0.50;;;30.10;38.00;;;;;;5036080;28;20451;-71
2022/08/07 14:22:51;;;;;;;0.70;0.50;;;29.70;37.70;;;;;;5036168;28;20546;-71
2022/08/07 14:25:24;;;;;;;0.70;0.53;;;29.70;38.70;;;;;;5035848;28;20467;-71
2022/08/07 14:27:53;;;;;;;0.70;0.50;;;29.90;37.90;;;;;;5035992;28;20799;-71
2022/08/07 14:30:20;;;;;;;0.80;0.60;;;29.80;37.80;;;;;;5035924;28;20459;-71
2022/08/07 14:32:50;;;;;;;0.70;0.60;;;29.70;38.20;;;;;;5035851;28;20439;-72
2022/08/07 14:35:21;;;;;;;0.70;0.50;;;29.90;38.10;;;;;;5035637;28;20471;-72
2022/08/07 14:37:52;;;;;;;0.70;0.50;;;29.90;36.90;;;;;;5035690;28;20436;-71
2022/08/07 14:40:22;;;;;;;0.70;0.50;;;30.00;36.90;;;;;;5035904;28;20435;-71
2022/08/07 14:42:55;;;;;;;0.70;0.60;;;30.10;37.50;;;;;;5035708;28;20447;-72
2022/08/07 14:45:23;;;;;;;1.30;0.60;;;30.10;37.50;;;;;;5035746;28;20466;-71
2022/08/07 14:47:52;;;;;;;0.70;0.60;;;30.20;37.60;;;;;;5035493;28;20447;-71
2022/08/07 14:50:22;;;;;;;0.70;0.50;;;30.10;36.50;;;;;;5035532;28;20467;-70
2022/08/07 14:52:50;;;;;;;0.70;0.50;;;30.20;37.60;;;;;;5035534;28;20866;-71
2022/08/07 14:55:17;;;;;;;0.70;0.50;;;30.20;36.70;;;;;;5035320;28;20578;-73
2022/08/07 14:57:47;;;;;;;0.70;0.60;;;30.20;37.40;;;;;;5035408;28;20788;-71
2022/08/07 15:00:18;;;;;;;0.70;0.57;;;30.10;37.40;;;;;;5035411;28;20432;-71
2022/08/07 15:02:46;;;;;;;0.70;0.50;;;29.80;37.20;;;;;;5035263;28;20455;-71
2022/08/07 15:05:16;;;;;;;0.70;0.50;;;29.40;37.70;;;;;;5035248;28;20471;-71
2022/08/07 15:07:46;;;;;;;0.70;0.50;;;29.70;37.40;;;;;;5035169;28;20491;-71
2022/08/07 15:10:18;;;;;;;0.70;0.57;;;30.00;36.90;;;;;;5034774;28;20471;-71
2022/08/07 15:12:45;;;;;;;0.70;0.50;;;30.00;36.50;;;;;;5034219;28;20618;-71
2022/08/07 15:15:21;;;;;;;0.70;0.50;;;30.10;36.00;;;;;;5036034;28;20533;-71
2022/08/07 15:17:55;;;;;;;0.70;0.50;;;30.60;36.80;;;;;;5035271;28;20434;-73
2022/08/07 15:20:26;;;;;;;0.70;0.50;;;30.70;35.50;;;;;;5035606;28;20432;-71
2022/08/07 15:22:55;;;;;;;0.70;0.50;;;30.30;36.10;;;;;;5034621;28;20776;-72
2022/08/07 15:25:25;;;;;;;0.70;0.57;;;30.10;35.90;;;;;;5034682;28;20463;-72
2022/08/07 15:27:57;;;;;;;0.70;0.60;;;29.70;36.90;;;;;;5034760;28;20541;-72
2022/08/07 15:30:25;;;;;;;0.70;0.50;;;29.70;36.60;;;;;;5034851;28;20546;-73
2022/08/07 15:32:52;;;;;;;0.70;0.50;;;30.30;36.50;;;;;;5034691;28;20447;-72
2022/08/07 15:35:21;;;;;;;0.70;0.53;;;31.20;35.40;;;;;;5034630;28;20468;-73
2022/08/07 15:37:51;;;;;;;0.70;0.50;;;32.20;34.80;;;;;;5034554;28;20505;-72
2022/08/07 15:40:21;;;;;;;0.70;0.50;;;32.60;33.60;;;;;;5034173;28;20444;-73
2022/08/07 15:42:53;;;;;;;0.60;0.50;;;32.30;33.90;;;;;;5034552;28;20523;-73
2022/08/07 15:45:34;;;;;;;0.70;0.50;;;32.00;33.90;;;;;;5034340;28;20550;-72
2022/08/07 15:48:06;;;;;;;0.70;0.60;;;31.20;34.60;;;;;;5034427;28;20428;-73
2022/08/07 15:50:44;;;;;;;0.70;0.50;;;30.80;35.50;;;;;;5034480;28;20435;-73
2022/08/07 15:53:14;;;;;;;0.70;0.50;;;30.70;35.50;;;;;;5034337;28;20458;-72
2022/08/07 15:55:45;;;;;;;0.70;0.60;;;30.00;36.30;;;;;;5034192;28;20467;-74
2022/08/07 15:58:14;;;;;;;0.70;0.60;;;29.50;36.20;;;;;;5034353;28;20424;-73
2022/08/07 16:00:42;;;;;;;0.70;0.50;;;28.90;37.90;;;;;;5034423;28;20443;-73
2022/08/07 16:03:14;;;;;;;0.73;0.57;;;28.70;37.80;;;;;;5034539;28;20951;-72
2022/08/07 16:05:46;;;;;;;0.90;0.60;;;28.60;38.20;;;;;;5034616;28;20563;-74
2022/08/07 16:08:15;;;;;;;0.70;0.50;;;28.30;38.80;;;;;;5034236;28;20519;-74
2022/08/07 16:10:49;;;;;;;0.70;0.60;;;28.30;38.50;;;;;;5033982;28;20448;-74
2022/08/07 16:13:50;;;;;;;0.70;0.50;;;27.80;38.70;;;;;;5033813;28;20526;-73
2022/08/07 16:16:26;;;;;;;0.70;0.50;;;27.90;39.70;;;;;;5033635;28;20521;-73
2022/08/07 16:19:18;;;;;;;0.70;0.50;;;28.00;38.60;;;;;;5033796;28;20428;-75
2022/08/07 16:21:53;;;;;;;0.70;0.50;;;28.00;38.30;;;;;;5033849;28;20432;-73